createdAt,value
2022-11-20T00:01:44.260Z,56.46
2022-11-20T00:04:13.497Z,56.82
2022-11-20T00:06:41.690Z,56.77
2022-11-20T00:09:11.086Z,57.03
2022-11-20T00:11:39.255Z,56.99
2022-11-20T00:14:08.451Z,56.90
2022-11-20T00:16:36.464Z,56.69
2022-11-20T00:19:04.846Z,56.63
2022-11-20T00:21:33.869Z,56.32
2022-11-20T00:24:01.740Z,56.40
2022-11-20T00:26:31.244Z,56.33
2022-11-20T00:29:01.272Z,56.39
2022-11-20T00:31:29.674Z,56.31
2022-11-20T00:33:58.718Z,56.47
2022-11-20T00:36:27.681Z,56.61
2022-11-20T00:38:56.927Z,57.00
2022-11-20T00:41:29.241Z,57.26
2022-11-20T00:43:59.022Z,57.34
2022-11-20T00:46:29.055Z,57.38
2022-11-20T00:48:57.247Z,57.28
2022-11-20T00:51:26.803Z,57.49
2022-11-20T00:53:56.793Z,57.67
2022-11-20T00:56:24.905Z,57.74
2022-11-20T00:58:53.078Z,57.50
2022-11-20T01:01:22.052Z,57.55
2022-11-20T01:03:50.747Z,57.51
2022-11-20T01:06:20.893Z,57.35
2022-11-20T01:08:49.675Z,57.19
2022-11-20T01:11:20.311Z,57.13
2022-11-20T01:13:50.317Z,57.04
2022-11-20T01:16:20.596Z,56.99
2022-11-20T01:18:50.157Z,56.95
2022-11-20T01:21:26.819Z,57.14
2022-11-20T01:23:55.781Z,57.11
2022-11-20T01:26:30.460Z,57.14
2022-11-20T01:28:59.135Z,57.36
2022-11-20T01:31:30.092Z,57.60
2022-11-20T01:34:00.422Z,57.90
2022-11-20T01:36:30.298Z,58.17
2022-11-20T01:38:59.987Z,58.11
2022-11-20T01:41:48.266Z,58.13
2022-11-20T01:44:17.157Z,58.32
2022-11-20T01:46:52.113Z,58.19
2022-11-20T01:49:23.307Z,58.11
2022-11-20T01:52:06.523Z,57.99
2022-11-20T01:54:37.350Z,58.08
2022-11-20T01:57:06.969Z,58.02
2022-11-20T01:59:39.090Z,57.94
2022-11-20T02:02:06.839Z,57.71
2022-11-20T02:04:34.841Z,57.50
2022-11-20T02:07:07.498Z,57.49
2022-11-20T02:09:36.328Z,57.43
2022-11-20T02:12:06.785Z,57.55
2022-11-20T02:14:35.694Z,57.57
2022-11-20T02:17:03.852Z,57.99
2022-11-20T02:19:32.929Z,58.24
2022-11-20T02:22:05.023Z,58.37
2022-11-20T02:24:35.430Z,58.59
2022-11-20T02:27:13.628Z,58.98
2022-11-20T02:30:01.446Z,59.59
2022-11-20T02:32:33.148Z,59.56
2022-11-20T02:35:10.438Z,59.90
2022-11-20T02:37:41.080Z,60.02
2022-11-20T02:40:09.198Z,59.80
2022-11-20T02:42:39.016Z,59.75
2022-11-20T02:45:08.347Z,59.82
2022-11-20T02:47:36.290Z,60.00
2022-11-20T02:50:09.243Z,60.00
2022-11-20T02:52:38.196Z,60.24
2022-11-20T02:55:06.467Z,60.04
2022-11-20T02:57:34.303Z,60.08
2022-11-20T03:00:10.576Z,60.23
2022-11-20T03:02:38.372Z,60.57
2022-11-20T03:05:07.360Z,60.49
2022-11-20T03:07:36.328Z,60.32
2022-11-20T03:10:05.826Z,60.26
2022-11-20T03:12:33.748Z,60.24
2022-11-20T03:15:03.946Z,60.42
2022-11-20T03:17:32.868Z,60.24
2022-11-20T03:20:01.766Z,60.49
2022-11-20T03:22:31.169Z,60.88
2022-11-20T03:25:00.031Z,60.88
2022-11-20T03:27:27.926Z,61.08
2022-11-20T03:29:55.752Z,61.06
2022-11-20T03:32:25.694Z,60.87
2022-11-20T03:34:55.806Z,60.92
2022-11-20T03:37:28.116Z,60.80
2022-11-20T03:40:00.095Z,60.78
2022-11-20T03:42:48.911Z,60.79
2022-11-20T03:45:25.126Z,60.83
2022-11-20T03:47:53.038Z,60.91
2022-11-20T03:50:23.022Z,61.09
2022-11-20T03:52:50.760Z,60.85
2022-11-20T03:55:19.696Z,60.89
2022-11-20T03:57:49.550Z,61.23
2022-11-20T04:00:17.371Z,61.48
2022-11-20T04:02:45.180Z,61.82
2022-11-20T04:05:14.077Z,61.86
2022-11-20T04:07:44.026Z,61.80
2022-11-20T04:10:19.173Z,61.89
2022-11-20T04:12:49.117Z,61.87
2022-11-20T04:15:16.981Z,61.66
2022-11-20T04:17:45.179Z,61.62
2022-11-20T04:20:13.095Z,61.58
2022-11-20T04:22:41.005Z,61.31
2022-11-20T04:25:09.338Z,61.19
2022-11-20T04:27:39.209Z,61.19
2022-11-20T04:30:14.278Z,60.89
2022-11-20T04:32:43.226Z,60.72
2022-11-20T04:35:12.116Z,60.50
2022-11-20T04:37:40.993Z,60.34
2022-11-20T04:40:09.079Z,60.26
2022-11-20T04:42:40.118Z,60.21
2022-11-20T04:45:09.313Z,60.24
2022-11-20T04:47:38.206Z,60.00
2022-11-20T04:50:07.327Z,59.92
2022-11-20T04:52:35.157Z,59.99
2022-11-20T04:55:04.190Z,59.96
2022-11-20T04:57:32.012Z,59.83
2022-11-20T05:00:00.852Z,59.37
2022-11-20T05:02:33.172Z,59.54
2022-11-20T05:05:00.947Z,59.52
2022-11-20T05:07:34.222Z,59.66
2022-11-20T05:10:02.307Z,59.99
2022-11-20T05:12:31.167Z,60.07
2022-11-20T05:15:00.086Z,60.33
2022-11-20T05:18:02.000Z,60.33
2022-11-20T05:20:29.748Z,60.40
2022-11-20T05:22:58.723Z,60.56
2022-11-20T05:25:27.575Z,60.47
2022-11-20T05:27:55.376Z,60.29
2022-11-20T05:30:24.199Z,59.94
2022-11-20T05:32:54.172Z,59.93
2022-11-20T05:35:29.193Z,59.78
2022-11-20T05:38:03.336Z,59.52
2022-11-20T05:40:32.247Z,59.37
2022-11-20T05:43:08.331Z,59.39
2022-11-20T05:45:36.307Z,59.35
2022-11-20T05:48:04.207Z,59.30
2022-11-20T05:50:40.225Z,59.23
2022-11-20T05:53:14.318Z,59.45
2022-11-20T05:55:42.115Z,59.34
2022-11-20T05:58:12.020Z,59.29
2022-11-20T06:00:48.122Z,59.28
2022-11-20T06:03:22.116Z,59.27
2022-11-20T06:05:50.205Z,59.22
2022-11-20T06:08:20.184Z,59.32
2022-11-20T06:10:48.992Z,59.16
2022-11-20T06:13:21.269Z,59.14
2022-11-20T06:15:54.506Z,59.11
2022-11-20T06:18:23.466Z,59.14
2022-11-20T06:20:59.820Z,58.85
2022-11-20T06:23:28.757Z,59.10
2022-11-20T06:25:57.655Z,59.02
2022-11-20T06:28:27.635Z,58.85
2022-11-20T06:30:55.509Z,58.79
2022-11-20T06:33:28.152Z,58.78
2022-11-20T06:36:10.180Z,58.62
2022-11-20T06:38:47.208Z,58.79
2022-11-20T06:41:20.447Z,58.86
2022-11-20T06:43:53.340Z,58.89
2022-11-20T06:46:22.575Z,58.92
2022-11-20T06:48:54.169Z,59.05
2022-11-20T06:51:23.120Z,59.08
2022-11-20T06:53:52.973Z,59.01
2022-11-20T06:56:33.186Z,59.13
2022-11-20T06:59:08.580Z,59.13
2022-11-20T07:01:37.604Z,59.18
2022-11-20T07:04:06.513Z,59.14
2022-11-20T07:06:35.419Z,58.86
2022-11-20T07:09:12.415Z,58.67
2022-11-20T07:11:40.680Z,58.67
2022-11-20T07:14:14.157Z,58.67
2022-11-20T07:16:44.254Z,58.40
2022-11-20T07:19:13.313Z,58.44
2022-11-20T07:21:42.376Z,58.36
2022-11-20T07:24:11.293Z,58.26
2022-11-20T07:26:47.111Z,58.02
2022-11-20T07:29:25.167Z,57.95
2022-11-20T07:31:57.819Z,57.92
2022-11-20T07:34:26.779Z,57.96
2022-11-20T07:36:55.851Z,58.45
2022-11-20T07:39:23.885Z,58.03
2022-11-20T07:41:51.990Z,57.78
2022-11-20T07:44:20.929Z,56.95
2022-11-20T07:46:49.844Z,55.88
2022-11-20T07:49:17.748Z,55.61
2022-11-20T07:51:47.005Z,54.64
2022-11-20T07:54:18.225Z,53.75
2022-11-20T07:56:55.160Z,52.62
2022-11-20T07:59:28.960Z,51.96
2022-11-20T08:01:57.267Z,50.77
2022-11-20T08:04:25.141Z,49.57
2022-11-20T08:06:53.661Z,48.01
2022-11-20T08:09:21.752Z,47.32
2022-11-20T08:12:08.671Z,46.99
2022-11-20T08:14:37.552Z,46.25
2022-11-20T08:17:09.162Z,45.85
2022-11-20T08:19:38.221Z,45.23
2022-11-20T08:22:06.190Z,44.40
2022-11-20T08:24:34.089Z,44.77
2022-11-20T08:27:02.134Z,44.34
2022-11-20T08:29:30.371Z,44.10
2022-11-20T08:32:03.205Z,43.76
2022-11-20T08:34:43.153Z,43.29
2022-11-20T08:37:11.246Z,41.73
2022-11-20T08:39:40.135Z,41.98
2022-11-20T08:42:09.569Z,41.50
2022-11-20T08:44:44.312Z,40.88
2022-11-20T08:47:13.186Z,40.18
2022-11-20T08:49:41.229Z,39.85
2022-11-20T08:52:10.262Z,39.81
2022-11-20T08:54:39.236Z,39.68
2022-11-20T08:57:08.194Z,38.99
2022-11-20T09:00:05.191Z,37.79
2022-11-20T09:02:39.168Z,38.07
2022-11-20T09:05:07.612Z,38.61
2022-11-20T09:07:35.674Z,39.21
2022-11-20T09:12:58.853Z,40.77
2022-11-20T09:15:27.780Z,41.62
2022-11-20T09:17:57.520Z,42.20
2022-11-20T09:20:31.017Z,42.96
2022-11-20T09:22:59.282Z,43.44
2022-11-20T09:25:34.505Z,43.74
2022-11-20T09:28:12.003Z,44.16
2022-11-20T09:30:46.248Z,44.47
2022-11-20T09:33:15.295Z,44.78
2022-11-20T09:35:45.138Z,44.90
2022-11-20T09:38:15.270Z,45.20
2022-11-20T09:41:10.721Z,45.64
2022-11-20T09:44:04.089Z,46.22
2022-11-20T09:46:51.447Z,46.45
2022-11-20T09:49:42.726Z,46.80
2022-11-20T09:52:32.098Z,46.94
2022-11-20T09:55:03.470Z,47.19
2022-11-20T09:57:41.724Z,47.54
2022-11-20T10:00:20.836Z,47.83
2022-11-20T10:03:04.325Z,48.03
2022-11-20T10:06:07.867Z,48.15
2022-11-20T10:08:45.899Z,48.08
2022-11-20T10:11:18.991Z,48.01
2022-11-20T10:14:10.403Z,47.85
2022-11-20T10:17:00.735Z,47.63
2022-11-20T10:19:39.444Z,47.39
2022-11-20T10:22:49.444Z,47.66
2022-11-20T10:25:23.229Z,47.39
2022-11-20T10:28:25.385Z,47.02
2022-11-20T10:31:03.506Z,47.11
2022-11-20T10:34:10.453Z,47.26
2022-11-20T10:36:48.126Z,47.64
2022-11-20T10:39:37.030Z,47.85
2022-11-20T10:42:09.812Z,47.98
2022-11-20T10:45:05.775Z,48.12
2022-11-20T10:47:37.503Z,48.11
2022-11-20T10:50:22.287Z,48.35
2022-11-20T10:53:12.495Z,48.54
2022-11-20T10:55:48.169Z,48.80
2022-11-20T10:58:31.433Z,48.74
2022-11-20T11:01:18.462Z,48.49
2022-11-20T11:03:48.095Z,48.01
2022-11-20T11:06:30.480Z,47.53
2022-11-20T11:09:01.602Z,47.30
2022-11-20T11:11:34.895Z,47.38
2022-11-20T11:14:15.493Z,46.86
2022-11-20T11:16:58.945Z,45.81
2022-11-20T11:19:27.231Z,45.08
2022-11-20T11:22:00.820Z,44.62
2022-11-20T11:24:46.500Z,43.82
2022-11-20T11:27:19.122Z,44.53
2022-11-20T11:29:48.504Z,45.21
2022-11-20T11:32:21.834Z,45.59
2022-11-20T11:35:18.193Z,45.52
2022-11-20T11:37:49.148Z,44.59
2022-11-20T11:40:25.205Z,43.68
2022-11-20T11:43:05.543Z,43.13
2022-11-20T11:45:33.611Z,41.56
2022-11-20T11:48:09.551Z,40.45
2022-11-20T11:50:37.623Z,39.37
2022-11-20T11:53:15.680Z,39.14
2022-11-20T11:55:53.793Z,38.36
2022-11-20T11:58:35.311Z,38.66
2022-11-20T12:01:16.524Z,38.16
2022-11-20T12:04:05.751Z,37.69
2022-11-20T12:06:40.630Z,37.39
2022-11-20T12:09:12.991Z,38.65
2022-11-20T12:12:06.848Z,40.44
2022-11-20T12:14:38.001Z,42.28
2022-11-20T12:17:14.563Z,43.56
2022-11-20T12:19:43.142Z,44.52
2022-11-20T12:22:48.312Z,45.37
2022-11-20T12:25:30.253Z,46.36
2022-11-20T12:28:10.490Z,46.83
2022-11-20T12:30:43.892Z,46.82
2022-11-20T12:33:39.498Z,46.61
2022-11-20T12:36:19.307Z,46.49
2022-11-20T12:39:18.760Z,46.26
2022-11-20T12:42:23.167Z,44.88
2022-11-20T12:45:12.420Z,43.36
2022-11-20T12:47:49.442Z,41.57
2022-11-20T12:50:29.292Z,39.92
2022-11-20T12:53:05.191Z,38.62
2022-11-20T12:55:42.160Z,37.97
2022-11-20T12:58:21.611Z,37.73
2022-11-20T13:01:48.419Z,36.76
2022-11-20T13:04:16.308Z,36.40
2022-11-20T13:06:45.690Z,36.37
2022-11-20T13:09:19.322Z,36.35
2022-11-20T13:12:18.089Z,36.69
2022-11-20T13:15:08.153Z,36.96
2022-11-20T13:17:56.510Z,37.06
2022-11-20T13:20:25.295Z,37.27
2022-11-20T13:23:04.172Z,37.21
2022-11-20T13:25:33.709Z,37.87
2022-11-20T13:28:06.143Z,38.96
2022-11-20T13:30:36.076Z,39.71
2022-11-20T13:33:06.814Z,39.81
2022-11-20T13:35:37.901Z,39.43
2022-11-20T13:38:05.704Z,39.50
2022-11-20T13:40:34.234Z,40.11
2022-11-20T13:43:17.488Z,41.11
2022-11-20T13:45:57.046Z,42.35
2022-11-20T13:48:30.373Z,43.71
2022-11-20T13:51:07.346Z,45.62
2022-11-20T13:53:56.653Z,46.95
2022-11-20T13:56:39.629Z,48.71
2022-11-20T13:59:10.820Z,49.65
2022-11-20T14:01:46.885Z,50.71
2022-11-20T14:04:21.912Z,51.00
2022-11-20T14:06:50.611Z,51.70
2022-11-20T14:09:36.810Z,51.70
2022-11-20T14:12:05.476Z,52.40
2022-11-20T14:14:34.913Z,52.25
2022-11-20T14:17:10.085Z,52.33
2022-11-20T14:19:47.654Z,52.50
2022-11-20T14:22:25.586Z,52.84
2022-11-20T14:25:16.387Z,52.74
2022-11-20T14:27:49.061Z,53.06
2022-11-20T14:30:20.305Z,53.09
2022-11-20T14:32:49.768Z,53.34
2022-11-20T14:35:45.345Z,53.59
2022-11-20T14:38:16.865Z,53.92
2022-11-20T14:40:44.623Z,53.81
2022-11-20T14:43:29.843Z,53.73
2022-11-20T14:46:06.761Z,53.92
2022-11-20T14:48:51.203Z,53.56
2022-11-20T14:51:47.484Z,53.51
2022-11-20T14:54:23.446Z,54.44
2022-11-20T14:57:00.796Z,54.68
2022-11-20T14:59:36.351Z,54.64
2022-11-20T15:02:10.026Z,54.75
2022-11-20T15:04:47.499Z,54.79
2022-11-20T15:07:30.864Z,54.68
2022-11-20T15:10:06.888Z,54.76
2022-11-20T15:12:35.958Z,54.66
2022-11-20T15:15:04.474Z,54.45
2022-11-20T15:17:39.150Z,54.69
2022-11-20T15:20:17.594Z,54.36
2022-11-20T15:22:45.775Z,54.30
2022-11-20T15:25:19.005Z,54.32
2022-11-20T15:27:52.268Z,54.37
2022-11-20T15:30:21.693Z,54.58
2022-11-20T15:32:49.928Z,54.74
2022-11-20T15:35:17.822Z,55.46
2022-11-20T15:37:45.793Z,55.54
2022-11-20T15:40:13.965Z,55.79
2022-11-20T15:43:01.888Z,56.14
2022-11-20T15:45:37.369Z,56.56
2022-11-20T15:48:06.382Z,56.90
2022-11-20T15:50:42.234Z,56.81
2022-11-20T15:53:11.472Z,56.78
2022-11-20T15:55:39.818Z,56.81
2022-11-20T15:58:07.647Z,56.46
2022-11-20T16:00:35.652Z,56.31
2022-11-20T16:03:03.888Z,56.34
2022-11-20T16:05:33.143Z,56.18
2022-11-20T16:08:04.959Z,56.16
2022-11-20T16:10:38.390Z,56.03
2022-11-20T16:13:36.034Z,55.97
2022-11-20T16:16:12.818Z,56.70
2022-11-20T16:18:41.682Z,56.64
2022-11-20T16:21:14.316Z,57.06
2022-11-20T16:23:43.477Z,57.41
2022-11-20T16:26:17.989Z,57.80
2022-11-20T16:28:45.984Z,57.71
2022-11-20T16:31:16.413Z,57.72
2022-11-20T16:33:44.739Z,58.03
2022-11-20T16:36:15.254Z,58.37
2022-11-20T16:38:44.348Z,58.83
2022-11-20T16:41:16.284Z,59.17
2022-11-20T16:43:48.121Z,59.26
2022-11-20T16:46:19.636Z,59.63
2022-11-20T16:48:59.805Z,59.38
2022-11-20T16:51:30.204Z,59.71
2022-11-20T16:54:02.533Z,59.97
2022-11-20T16:56:30.567Z,60.53
2022-11-20T16:59:00.189Z,60.05
2022-11-20T17:01:38.791Z,60.64
2022-11-20T17:04:07.487Z,60.83
2022-11-20T17:06:40.492Z,60.68
2022-11-20T17:09:11.380Z,61.00
2022-11-20T17:11:39.578Z,61.11
2022-11-20T17:14:07.677Z,62.17
2022-11-20T17:16:40.851Z,62.01
2022-11-20T17:19:11.631Z,62.01
2022-11-20T17:21:39.818Z,62.58
2022-11-20T17:24:12.872Z,62.89
2022-11-20T17:26:42.621Z,63.61
2022-11-20T17:29:16.753Z,63.59
2022-11-20T17:31:48.968Z,64.05
2022-11-20T17:34:18.234Z,63.83
2022-11-20T17:36:46.661Z,63.89
2022-11-20T17:39:17.503Z,63.96
2022-11-20T17:41:45.999Z,64.08
2022-11-20T17:44:17.178Z,64.01
2022-11-20T17:46:46.161Z,64.19
2022-11-20T17:49:16.953Z,64.25
2022-11-20T17:51:46.826Z,64.56
2022-11-20T17:54:15.760Z,64.67
2022-11-20T17:57:04.534Z,64.31
2022-11-20T17:59:32.498Z,64.72
2022-11-20T18:02:03.658Z,64.41
2022-11-20T18:04:38.579Z,64.24
2022-11-20T18:07:06.515Z,64.24
2022-11-20T18:09:34.501Z,64.21
2022-11-20T18:12:02.386Z,64.56
2022-11-20T18:14:33.095Z,64.53
2022-11-20T18:17:07.538Z,64.56
2022-11-20T18:19:51.544Z,64.32
2022-11-20T18:22:29.789Z,64.39
2022-11-20T18:24:58.588Z,64.35
2022-11-20T18:27:27.560Z,64.28
2022-11-20T18:29:56.616Z,64.51
2022-11-20T18:32:24.733Z,64.71
2022-11-20T18:34:53.339Z,65.12
2022-11-20T18:37:22.459Z,65.13
2022-11-20T18:39:51.788Z,65.42
2022-11-20T18:42:40.594Z,65.60
2022-11-20T18:45:08.643Z,65.59
2022-11-20T18:47:40.403Z,65.93
2022-11-20T18:50:09.872Z,66.05
2022-11-20T18:52:44.527Z,66.13
2022-11-20T18:55:15.182Z,66.03
2022-11-20T18:57:43.201Z,66.14
2022-11-20T19:00:13.165Z,65.87
2022-11-20T19:02:43.429Z,66.29
2022-11-20T19:05:13.564Z,66.16
2022-11-20T19:07:43.731Z,66.29
2022-11-20T19:10:11.913Z,66.38
2022-11-20T19:12:39.961Z,66.58
2022-11-20T19:15:09.497Z,66.78
2022-11-20T19:17:39.535Z,66.73
2022-11-20T19:20:08.386Z,66.57
2022-11-20T19:22:40.261Z,66.83
2022-11-20T19:25:09.265Z,66.88
2022-11-20T19:27:37.146Z,67.10
2022-11-20T19:30:06.594Z,67.12
2022-11-20T19:32:35.441Z,67.25
2022-11-20T19:35:13.427Z,67.37
2022-11-20T19:37:41.327Z,67.41
2022-11-20T19:40:10.206Z,67.50
2022-11-20T19:42:38.179Z,67.56
2022-11-20T19:45:14.300Z,67.57
2022-11-20T19:50:32.066Z,67.68
2022-11-20T19:53:00.146Z,67.60
2022-11-20T19:55:35.260Z,67.58
2022-11-20T19:58:04.407Z,67.51
2022-11-20T20:00:33.092Z,67.88
2022-11-20T20:03:11.256Z,67.66
2022-11-20T20:05:40.245Z,67.62
2022-11-20T20:08:08.225Z,67.52
2022-11-20T20:10:38.758Z,67.44
2022-11-20T20:13:07.287Z,67.56
2022-11-20T20:15:41.196Z,67.30
2022-11-20T20:18:10.208Z,67.28
2022-11-20T20:20:38.189Z,67.28
2022-11-20T20:23:12.530Z,67.38
2022-11-20T20:25:42.812Z,67.25
2022-11-20T20:28:11.844Z,66.97
2022-11-20T20:30:39.784Z,67.05
2022-11-20T20:33:08.931Z,67.04
2022-11-20T20:35:42.279Z,66.98
2022-11-20T20:38:10.313Z,66.93
2022-11-20T20:40:52.470Z,66.78
2022-11-20T20:43:20.607Z,66.76
2022-11-20T20:45:51.063Z,66.90
2022-11-20T20:48:22.502Z,66.48
2022-11-20T20:51:09.773Z,66.59
2022-11-20T20:53:38.623Z,66.33
2022-11-20T20:56:10.432Z,66.21
2022-11-20T20:58:38.391Z,66.06
2022-11-20T21:01:18.287Z,66.04
2022-11-20T21:03:47.358Z,65.92
2022-11-20T21:06:16.421Z,65.79
2022-11-20T21:08:44.741Z,65.51
2022-11-20T21:11:16.700Z,65.46
2022-11-20T21:13:47.836Z,65.30
2022-11-20T21:16:18.263Z,65.21
2022-11-20T21:18:46.662Z,65.16
2022-11-20T21:21:33.993Z,65.00
2022-11-20T21:24:02.916Z,65.15
2022-11-20T21:26:30.789Z,64.91
2022-11-20T21:28:58.588Z,64.86
2022-11-20T21:31:27.016Z,64.80
2022-11-20T21:33:56.549Z,64.79
2022-11-20T21:36:26.827Z,64.60
2022-11-20T21:38:55.453Z,64.55
2022-11-20T21:41:24.081Z,64.56
2022-11-20T21:45:48.926Z,64.60
2022-11-20T21:48:16.758Z,64.66
2022-11-20T21:50:44.670Z,64.46
2022-11-20T21:53:12.546Z,64.23
2022-11-20T21:55:40.303Z,64.18
2022-11-20T21:58:08.000Z,64.06
2022-11-20T22:00:36.015Z,63.91
2022-11-20T22:03:04.081Z,63.75
2022-11-20T22:05:31.826Z,63.76
2022-11-20T22:07:59.668Z,63.59
2022-11-20T22:10:28.177Z,63.37
2022-11-20T22:13:18.435Z,63.37
2022-11-20T22:16:00.253Z,63.31
2022-11-20T22:18:30.117Z,63.29
2022-11-20T22:21:02.837Z,63.28
2022-11-20T22:23:30.777Z,63.23
2022-11-20T22:26:05.757Z,63.38
2022-11-20T22:28:34.612Z,63.47
2022-11-20T22:31:03.747Z,63.34
2022-11-20T22:33:32.781Z,63.28
2022-11-20T22:36:04.960Z,63.16
2022-11-20T22:38:38.891Z,63.04
2022-11-20T22:41:08.638Z,62.98
2022-11-20T22:43:36.857Z,63.25
2022-11-20T22:46:08.278Z,63.22
2022-11-20T22:48:37.092Z,63.36
2022-11-20T22:51:07.718Z,63.29
2022-11-20T22:53:36.293Z,63.32
2022-11-20T22:56:08.547Z,63.36
2022-11-20T22:58:37.504Z,63.09
2022-11-20T23:01:10.302Z,62.90
2022-11-20T23:03:38.693Z,62.83
2022-11-20T23:06:07.653Z,62.93
2022-11-20T23:08:35.571Z,63.14
2022-11-20T23:11:13.041Z,63.27
2022-11-20T23:13:42.136Z,63.51
2022-11-20T23:16:14.261Z,63.49
2022-11-20T23:18:42.511Z,63.55
2022-11-20T23:21:11.462Z,63.56
2022-11-20T23:23:39.376Z,63.81
2022-11-20T23:26:12.664Z,63.64
2022-11-20T23:28:42.231Z,63.77
2022-11-20T23:31:12.220Z,63.53
2022-11-20T23:33:42.100Z,63.59
2022-11-20T23:36:10.808Z,63.25
2022-11-20T23:38:38.958Z,63.47
2022-11-20T23:41:07.684Z,63.28
2022-11-20T23:43:35.601Z,63.27
2022-11-20T23:46:04.810Z,63.32
2022-11-20T23:48:35.123Z,63.25
2022-11-20T23:51:06.857Z,63.14
2022-11-20T23:53:34.769Z,63.10
2022-11-20T23:56:05.195Z,63.04
2022-11-20T23:58:37.908Z,63.11
